SBI5308 UNKL-UNNT
Flight info
| Callsign | SBI5308 |
|---|---|
| Flight time | 0h 59m |
| Altitude | 34000 |
| Route | K0835F380 APRUS B926 NATIR |
| Aircraft | B738/M-VGDW/C |
Departure
| Time | 2026-04-28 08:44 |
|---|---|
| Airport | Krasnoyarsk International Airport (UNKL) |
Arrival
| Time | 2026-04-28 09:44 |
|---|---|
| Airport | Novosibirsk Tolmachevo Airport (UNNT) |
| Time | Latitude | Longitude | Altitude | Speed | Heading |
|---|---|---|---|---|---|
| 2026-04-28 08:29 | 56.17968 | 92.48433 | 948 ft | 0 kts | 22° |
| 2026-04-28 08:35 | 56.17959 | 92.48427 | 949 ft | 2 kts | 24° |
| 2026-04-28 08:35 | 56.17944 | 92.48414 | 948 ft | 2 kts | 26° |
| 2026-04-28 08:35 | 56.17929 | 92.48400 | 949 ft | 2 kts | 31° |
| 2026-04-28 08:36 | 56.17916 | 92.48383 | 949 ft | 2 kts | 41° |
| 2026-04-28 08:36 | 56.17905 | 92.48361 | 948 ft | 2 kts | 66° |
| 2026-04-28 08:36 | 56.17902 | 92.48333 | 940 ft | 2 kts | 105° |
| 2026-04-28 08:36 | 56.17905 | 92.48320 | 938 ft | 0 kts | 112° |
| 2026-04-28 08:37 | 56.17905 | 92.48319 | 938 ft | 0 kts | 112° |
| 2026-04-28 08:37 | 56.17905 | 92.48320 | 938 ft | 0 kts | 112° |
| 2026-04-28 08:37 | 56.17888 | 92.48389 | 955 ft | 13 kts | 112° |
| 2026-04-28 08:37 | 56.17817 | 92.48442 | 948 ft | 13 kts | 201° |
| 2026-04-28 08:38 | 56.17734 | 92.48422 | 950 ft | 13 kts | 137° |
| 2026-04-28 08:38 | 56.17696 | 92.48576 | 950 ft | 15 kts | 112° |
| 2026-04-28 08:38 | 56.17653 | 92.48757 | 949 ft | 17 kts | 112° |
| 2026-04-28 08:38 | 56.17604 | 92.48957 | 949 ft | 19 kts | 113° |
| 2026-04-28 08:39 | 56.17550 | 92.49181 | 949 ft | 20 kts | 112° |
| 2026-04-28 08:39 | 56.17496 | 92.49413 | 949 ft | 20 kts | 112° |
| 2026-04-28 08:39 | 56.17442 | 92.49639 | 949 ft | 19 kts | 114° |
| 2026-04-28 08:39 | 56.17390 | 92.49857 | 950 ft | 19 kts | 112° |
| 2026-04-28 08:40 | 56.17341 | 92.50069 | 948 ft | 18 kts | 113° |
| 2026-04-28 08:40 | 56.17289 | 92.50272 | 950 ft | 17 kts | 114° |
| 2026-04-28 08:40 | 56.17243 | 92.50470 | 950 ft | 17 kts | 114° |
| 2026-04-28 08:40 | 56.17243 | 92.50472 | 950 ft | 17 kts | 114° |
| 2026-04-28 08:41 | 56.17240 | 92.50482 | 948 ft | 17 kts | 113° |
| 2026-04-28 08:41 | 56.17195 | 92.50671 | 948 ft | 16 kts | 114° |
| 2026-04-28 08:41 | 56.17152 | 92.50851 | 949 ft | 16 kts | 113° |
| 2026-04-28 08:41 | 56.17110 | 92.51026 | 949 ft | 15 kts | 113° |
| 2026-04-28 08:42 | 56.17066 | 92.51214 | 948 ft | 18 kts | 111° |
| 2026-04-28 08:42 | 56.17009 | 92.51449 | 948 ft | 22 kts | 112° |
| 2026-04-28 08:42 | 56.16946 | 92.51707 | 950 ft | 22 kts | 114° |
| 2026-04-28 08:42 | 56.16873 | 92.51944 | 949 ft | 22 kts | 145° |
| 2026-04-28 08:43 | 56.16735 | 92.52041 | 950 ft | 21 kts | 161° |
| 2026-04-28 08:43 | 56.16674 | 92.51905 | 952 ft | 20 kts | 293° |
| 2026-04-28 08:43 | 56.16726 | 92.51670 | 950 ft | 20 kts | 291° |
| 2026-04-28 08:43 | 56.16844 | 92.51183 | 951 ft | 85 kts | 295° |
| 2026-04-28 08:44 | 56.17192 | 92.49735 | 1011 ft | 161 kts | 294° |
| 2026-04-28 08:44 | 56.17704 | 92.47746 | 1910 ft | 178 kts | 294° |
| 2026-04-28 08:44 | 56.18146 | 92.45665 | 3218 ft | 178 kts | 290° |
| 2026-04-28 08:44 | 56.18615 | 92.43578 | 4169 ft | 194 kts | 293° |
| 2026-04-28 08:45 | 56.19183 | 92.41204 | 4555 ft | 215 kts | 294° |
| 2026-04-28 08:45 | 56.19794 | 92.38672 | 5037 ft | 226 kts | 294° |
| 2026-04-28 08:45 | 56.20418 | 92.36085 | 5737 ft | 226 kts | 294° |
| 2026-04-28 08:45 | 56.21052 | 92.33459 | 6323 ft | 236 kts | 294° |
| 2026-04-28 08:46 | 56.21657 | 92.30606 | 6761 ft | 251 kts | 281° |
| 2026-04-28 08:46 | 56.21467 | 92.27455 | 7561 ft | 260 kts | 255° |
| 2026-04-28 08:46 | 56.20820 | 92.24404 | 8500 ft | 262 kts | 251° |
| 2026-04-28 08:46 | 56.20132 | 92.21344 | 9371 ft | 267 kts | 251° |
| 2026-04-28 08:47 | 56.19440 | 92.18215 | 10223 ft | 271 kts | 251° |
| 2026-04-28 08:47 | 56.18736 | 92.14997 | 10779 ft | 286 kts | 251° |
| 2026-04-28 08:47 | 56.17984 | 92.11538 | 10971 ft | 310 kts | 251° |
| 2026-04-28 08:47 | 56.17174 | 92.07815 | 11220 ft | 329 kts | 251° |
| 2026-04-28 08:48 | 56.16342 | 92.04003 | 11846 ft | 335 kts | 251° |
| 2026-04-28 08:48 | 56.15485 | 92.00096 | 12573 ft | 338 kts | 251° |
| 2026-04-28 08:48 | 56.14618 | 91.96137 | 13280 ft | 343 kts | 251° |
| 2026-04-28 08:48 | 56.13739 | 91.92134 | 13982 ft | 347 kts | 251° |
| 2026-04-28 08:49 | 56.12852 | 91.88093 | 14645 ft | 349 kts | 251° |
| 2026-04-28 08:49 | 56.11958 | 91.84031 | 15355 ft | 350 kts | 251° |
| 2026-04-28 08:49 | 56.11060 | 91.79959 | 16056 ft | 352 kts | 251° |
| 2026-04-28 08:49 | 56.10156 | 91.75866 | 16715 ft | 354 kts | 251° |
| 2026-04-28 08:50 | 56.09244 | 91.71745 | 17380 ft | 357 kts | 250° |
| 2026-04-28 08:50 | 56.08321 | 91.67589 | 17920 ft | 362 kts | 251° |
| 2026-04-28 08:50 | 56.07383 | 91.63367 | 18444 ft | 367 kts | 251° |
| 2026-04-28 08:50 | 56.06434 | 91.59099 | 19023 ft | 370 kts | 250° |
| 2026-04-28 08:51 | 56.05480 | 91.54822 | 19600 ft | 371 kts | 250° |
| 2026-04-28 08:51 | 56.04520 | 91.50530 | 20161 ft | 372 kts | 250° |
| 2026-04-28 08:51 | 56.03555 | 91.46220 | 20688 ft | 374 kts | 249° |
| 2026-04-28 08:51 | 56.02600 | 91.41967 | 21359 ft | 372 kts | 249° |
| 2026-04-28 08:52 | 56.01632 | 91.37665 | 21902 ft | 374 kts | 249° |
| 2026-04-28 08:52 | 56.00657 | 91.33333 | 22376 ft | 377 kts | 249° |
| 2026-04-28 08:52 | 55.99670 | 91.28962 | 22865 ft | 380 kts | 249° |
| 2026-04-28 08:52 | 55.98675 | 91.24566 | 23366 ft | 382 kts | 249° |
| 2026-04-28 08:53 | 55.97797 | 91.20077 | 23848 ft | 383 kts | 255° |
| 2026-04-28 08:53 | 55.97173 | 91.15431 | 24227 ft | 386 kts | 258° |
| 2026-04-28 08:53 | 55.96666 | 91.10704 | 24505 ft | 391 kts | 260° |
| 2026-04-28 08:53 | 55.96174 | 91.05857 | 24633 ft | 400 kts | 261° |
| 2026-04-28 08:54 | 55.95667 | 91.00966 | 25016 ft | 401 kts | 260° |
| 2026-04-28 08:54 | 55.95144 | 90.96139 | 25417 ft | 402 kts | 259° |
| 2026-04-28 08:54 | 55.94590 | 90.91233 | 25751 ft | 405 kts | 259° |
| 2026-04-28 08:54 | 55.94016 | 90.86299 | 26056 ft | 408 kts | 259° |
| 2026-04-28 08:55 | 55.93427 | 90.81333 | 26375 ft | 410 kts | 259° |
| 2026-04-28 08:55 | 55.92828 | 90.76341 | 26694 ft | 413 kts | 258° |
| 2026-04-28 08:55 | 55.92221 | 90.71321 | 27006 ft | 415 kts | 258° |
| 2026-04-28 08:55 | 55.91608 | 90.66273 | 27305 ft | 418 kts | 258° |
| 2026-04-28 08:56 | 55.90990 | 90.61201 | 27592 ft | 420 kts | 258° |
| 2026-04-28 08:56 | 55.90367 | 90.56106 | 27872 ft | 422 kts | 259° |
| 2026-04-28 08:56 | 55.89731 | 90.50929 | 27926 ft | 431 kts | 259° |
| 2026-04-28 08:56 | 55.89094 | 90.45749 | 28110 ft | 435 kts | 259° |
| 2026-04-28 08:57 | 55.88444 | 90.40481 | 28444 ft | 435 kts | 259° |
| 2026-04-28 08:57 | 55.87792 | 90.35215 | 28771 ft | 436 kts | 259° |
| 2026-04-28 08:57 | 55.87135 | 90.29931 | 29037 ft | 438 kts | 259° |
| 2026-04-28 08:57 | 55.86471 | 90.24609 | 29281 ft | 441 kts | 259° |
| 2026-04-28 08:58 | 55.85803 | 90.19271 | 29513 ft | 443 kts | 259° |
| 2026-04-28 08:58 | 55.85129 | 90.13918 | 29757 ft | 445 kts | 259° |
| 2026-04-28 08:58 | 55.84449 | 90.08527 | 30006 ft | 446 kts | 258° |
| 2026-04-28 08:58 | 55.83763 | 90.03117 | 30307 ft | 447 kts | 258° |
| 2026-04-28 08:59 | 55.83077 | 89.97734 | 30604 ft | 446 kts | 259° |
| 2026-04-28 08:59 | 55.81685 | 89.86866 | 30878 ft | 452 kts | 259° |
| 2026-04-28 08:59 | 55.80994 | 89.81492 | 31225 ft | 450 kts | 259° |
| 2026-04-28 09:00 | 55.80295 | 89.76083 | 31604 ft | 447 kts | 259° |
| 2026-04-28 09:00 | 55.79600 | 89.70712 | 31889 ft | 446 kts | 259° |
| 2026-04-28 09:00 | 55.78900 | 89.65336 | 32141 ft | 447 kts | 259° |
| 2026-04-28 09:00 | 55.78196 | 89.59947 | 32402 ft | 446 kts | 258° |
| 2026-04-28 09:01 | 55.77495 | 89.54600 | 32806 ft | 442 kts | 258° |
| 2026-04-28 09:01 | 55.76795 | 89.49278 | 33116 ft | 442 kts | 258° |
| 2026-04-28 09:01 | 55.76092 | 89.43961 | 33331 ft | 443 kts | 258° |
| 2026-04-28 09:01 | 55.75387 | 89.38637 | 33583 ft | 443 kts | 258° |
| 2026-04-28 09:02 | 55.74680 | 89.33322 | 33885 ft | 442 kts | 258° |
| 2026-04-28 09:02 | 55.73972 | 89.28024 | 34209 ft | 441 kts | 258° |
| 2026-04-28 09:02 | 55.73264 | 89.22734 | 34447 ft | 440 kts | 258° |
| 2026-04-28 09:02 | 55.72553 | 89.17444 | 34647 ft | 441 kts | 258° |
| 2026-04-28 09:03 | 55.71840 | 89.12156 | 34845 ft | 441 kts | 258° |
| 2026-04-28 09:03 | 55.71135 | 89.06939 | 35061 ft | 440 kts | 258° |
| 2026-04-28 09:03 | 55.70419 | 89.01664 | 35281 ft | 440 kts | 258° |
| 2026-04-28 09:03 | 55.69699 | 88.96387 | 35466 ft | 440 kts | 258° |
| 2026-04-28 09:04 | 55.68976 | 88.91089 | 35650 ft | 441 kts | 258° |
| 2026-04-28 09:04 | 55.68256 | 88.85817 | 35839 ft | 441 kts | 258° |
| 2026-04-28 09:04 | 55.67531 | 88.80518 | 35957 ft | 443 kts | 258° |
| 2026-04-28 09:04 | 55.66802 | 88.75215 | 36137 ft | 443 kts | 258° |
| 2026-04-28 09:05 | 55.66071 | 88.69913 | 36308 ft | 443 kts | 258° |
| 2026-04-28 09:05 | 55.64597 | 88.59284 | 36312 ft | 444 kts | 258° |
| 2026-04-28 09:06 | 55.63123 | 88.48727 | 36309 ft | 440 kts | 258° |
| 2026-04-28 09:06 | 55.61659 | 88.38307 | 36320 ft | 438 kts | 258° |
| 2026-04-28 09:07 | 55.60174 | 88.27798 | 36326 ft | 443 kts | 258° |
| 2026-04-28 09:07 | 55.58658 | 88.17153 | 36336 ft | 449 kts | 258° |
| 2026-04-28 09:08 | 55.57118 | 88.06415 | 36331 ft | 451 kts | 258° |
| 2026-04-28 09:08 | 55.55579 | 87.95775 | 36314 ft | 442 kts | 258° |
| 2026-04-28 09:09 | 55.54054 | 87.85283 | 36331 ft | 441 kts | 258° |
| 2026-04-28 09:09 | 55.52522 | 87.74797 | 36315 ft | 441 kts | 258° |
| 2026-04-28 09:10 | 55.50984 | 87.64345 | 36333 ft | 442 kts | 258° |
| 2026-04-28 09:10 | 55.49425 | 87.53833 | 36318 ft | 443 kts | 258° |
| 2026-04-28 09:11 | 55.47849 | 87.43332 | 36333 ft | 443 kts | 258° |
| 2026-04-28 09:11 | 55.46254 | 87.32804 | 36338 ft | 445 kts | 257° |
| 2026-04-28 09:12 | 55.44649 | 87.22268 | 36324 ft | 445 kts | 258° |
| 2026-04-28 09:12 | 55.43034 | 87.11721 | 36338 ft | 446 kts | 258° |
| 2026-04-28 09:13 | 55.41416 | 87.01222 | 36345 ft | 447 kts | 258° |
| 2026-04-28 09:13 | 55.39777 | 86.90647 | 36341 ft | 448 kts | 258° |
| 2026-04-28 09:14 | 55.38124 | 86.80058 | 36344 ft | 448 kts | 257° |
| 2026-04-28 09:14 | 55.36474 | 86.69549 | 36350 ft | 448 kts | 257° |
| 2026-04-28 09:15 | 55.34806 | 86.58992 | 36345 ft | 448 kts | 257° |
| 2026-04-28 09:15 | 55.33129 | 86.48448 | 36356 ft | 448 kts | 257° |
| 2026-04-28 09:16 | 55.31441 | 86.37901 | 36360 ft | 448 kts | 257° |
| 2026-04-28 09:16 | 55.30035 | 86.29157 | 36345 ft | 448 kts | 257° |
| 2026-04-28 09:16 | 55.29179 | 86.23847 | 35815 ft | 455 kts | 257° |
| 2026-04-28 09:17 | 55.28316 | 86.18518 | 35220 ft | 454 kts | 257° |
| 2026-04-28 09:17 | 55.27450 | 86.13185 | 34567 ft | 454 kts | 258° |
| 2026-04-28 09:17 | 55.26723 | 86.07820 | 33809 ft | 452 kts | 265° |
| 2026-04-28 09:17 | 55.26443 | 86.02396 | 32970 ft | 441 kts | 273° |
| 2026-04-28 09:18 | 55.26404 | 85.97039 | 32322 ft | 433 kts | 275° |
| 2026-04-28 09:18 | 55.26342 | 85.90135 | 31628 ft | 423 kts | 272° |
| 2026-04-28 09:18 | 55.26213 | 85.86748 | 31323 ft | 419 kts | 270° |
| 2026-04-28 09:18 | 55.25909 | 85.81707 | 30864 ft | 412 kts | 269° |
| 2026-04-28 09:19 | 55.25571 | 85.76755 | 30401 ft | 405 kts | 270° |
| 2026-04-28 09:19 | 55.25250 | 85.71901 | 29857 ft | 396 kts | 270° |
| 2026-04-28 09:19 | 55.24961 | 85.67151 | 29398 ft | 390 kts | 271° |
| 2026-04-28 09:19 | 55.24696 | 85.62382 | 28941 ft | 397 kts | 271° |
| 2026-04-28 09:20 | 55.24444 | 85.57475 | 28432 ft | 412 kts | 272° |
| 2026-04-28 09:20 | 55.24189 | 85.52448 | 27965 ft | 411 kts | 272° |
| 2026-04-28 09:20 | 55.23929 | 85.47511 | 27474 ft | 402 kts | 272° |
| 2026-04-28 09:20 | 55.23670 | 85.42689 | 27007 ft | 393 kts | 273° |
| 2026-04-28 09:21 | 55.23417 | 85.37970 | 26546 ft | 385 kts | 273° |
| 2026-04-28 09:21 | 55.23169 | 85.33325 | 26108 ft | 379 kts | 273° |
| 2026-04-28 09:21 | 55.22927 | 85.28773 | 25677 ft | 373 kts | 274° |
| 2026-04-28 09:21 | 55.22690 | 85.24288 | 25262 ft | 378 kts | 274° |
| 2026-04-28 09:22 | 55.22450 | 85.19605 | 24814 ft | 395 kts | 274° |
| 2026-04-28 09:22 | 55.22197 | 85.14770 | 24318 ft | 398 kts | 273° |
| 2026-04-28 09:22 | 55.21931 | 85.09983 | 23813 ft | 391 kts | 273° |
| 2026-04-28 09:22 | 55.21663 | 85.05284 | 23286 ft | 384 kts | 273° |
| 2026-04-28 09:23 | 55.21400 | 85.00693 | 22814 ft | 374 kts | 274° |
| 2026-04-28 09:23 | 55.21144 | 84.96211 | 22386 ft | 366 kts | 274° |
| 2026-04-28 09:23 | 55.20896 | 84.91804 | 21955 ft | 361 kts | 274° |
| 2026-04-28 09:23 | 55.20653 | 84.87463 | 21531 ft | 357 kts | 274° |
| 2026-04-28 09:24 | 55.20413 | 84.83102 | 21120 ft | 366 kts | 274° |
| 2026-04-28 09:24 | 55.20164 | 84.78581 | 20697 ft | 379 kts | 273° |
| 2026-04-28 09:24 | 55.19899 | 84.74006 | 20224 ft | 375 kts | 272° |
| 2026-04-28 09:24 | 55.19620 | 84.69509 | 19769 ft | 369 kts | 270° |
| 2026-04-28 09:25 | 55.19131 | 84.65072 | 19045 ft | 374 kts | 262° |
| 2026-04-28 09:25 | 55.18380 | 84.60740 | 18536 ft | 369 kts | 259° |
| 2026-04-28 09:25 | 55.17563 | 84.56528 | 18060 ft | 362 kts | 258° |
| 2026-04-28 09:25 | 55.16764 | 84.52404 | 17619 ft | 354 kts | 258° |
| 2026-04-28 09:26 | 55.16005 | 84.48347 | 17202 ft | 349 kts | 259° |
| 2026-04-28 09:26 | 55.15278 | 84.44335 | 16829 ft | 342 kts | 259° |
| 2026-04-28 09:26 | 55.14572 | 84.40341 | 16451 ft | 348 kts | 259° |
| 2026-04-28 09:26 | 55.13857 | 84.36219 | 16062 ft | 359 kts | 259° |
| 2026-04-28 09:27 | 55.12415 | 84.27974 | 15216 ft | 350 kts | 259° |
| 2026-04-28 09:27 | 55.11707 | 84.23953 | 14809 ft | 343 kts | 258° |
| 2026-04-28 09:27 | 55.11013 | 84.20013 | 14430 ft | 336 kts | 258° |
| 2026-04-28 09:28 | 55.10333 | 84.16143 | 14017 ft | 330 kts | 258° |
| 2026-04-28 09:28 | 55.09662 | 84.12322 | 13614 ft | 328 kts | 258° |
| 2026-04-28 09:28 | 55.08993 | 84.08533 | 13231 ft | 327 kts | 258° |
| 2026-04-28 09:28 | 55.08316 | 84.04692 | 12868 ft | 336 kts | 258° |
| 2026-04-28 09:29 | 55.07697 | 84.00736 | 12486 ft | 335 kts | 262° |
| 2026-04-28 09:29 | 55.07292 | 83.96790 | 12101 ft | 326 kts | 267° |
| 2026-04-28 09:29 | 55.07039 | 83.92921 | 11709 ft | 317 kts | 270° |
| 2026-04-28 09:29 | 55.06886 | 83.89128 | 11340 ft | 309 kts | 271° |
| 2026-04-28 09:30 | 55.06750 | 83.85419 | 10991 ft | 305 kts | 270° |
| 2026-04-28 09:30 | 55.06594 | 83.81782 | 10875 ft | 296 kts | 270° |
| 2026-04-28 09:30 | 55.06417 | 83.78212 | 10749 ft | 297 kts | 269° |
| 2026-04-28 09:30 | 55.06221 | 83.74627 | 10622 ft | 294 kts | 269° |
| 2026-04-28 09:31 | 55.06016 | 83.71152 | 10486 ft | 282 kts | 268° |
| 2026-04-28 09:31 | 55.05811 | 83.67819 | 10327 ft | 272 kts | 268° |
| 2026-04-28 09:31 | 55.05609 | 83.64565 | 10037 ft | 267 kts | 268° |
| 2026-04-28 09:31 | 55.05408 | 83.61371 | 9781 ft | 261 kts | 268° |
| 2026-04-28 09:32 | 55.05212 | 83.58287 | 9515 ft | 257 kts | 268° |
| 2026-04-28 09:32 | 55.05016 | 83.55218 | 9252 ft | 253 kts | 267° |
| 2026-04-28 09:32 | 55.04821 | 83.52158 | 9002 ft | 255 kts | 267° |
| 2026-04-28 09:32 | 55.04621 | 83.49054 | 8757 ft | 261 kts | 267° |
| 2026-04-28 09:33 | 55.04415 | 83.45856 | 8488 ft | 267 kts | 266° |
| 2026-04-28 09:33 | 55.04206 | 83.42653 | 8193 ft | 264 kts | 266° |
| 2026-04-28 09:33 | 55.03997 | 83.39489 | 7915 ft | 260 kts | 266° |
| 2026-04-28 09:33 | 55.03791 | 83.36398 | 7646 ft | 255 kts | 265° |
| 2026-04-28 09:34 | 55.03534 | 83.33372 | 7379 ft | 251 kts | 255° |
| 2026-04-28 09:34 | 55.02678 | 83.30735 | 6933 ft | 259 kts | 233° |
| 2026-04-28 09:34 | 55.01541 | 83.28407 | 6848 ft | 242 kts | 232° |
| 2026-04-28 09:34 | 55.00522 | 83.26200 | 6727 ft | 224 kts | 234° |
| 2026-04-28 09:35 | 54.99618 | 83.24115 | 6592 ft | 207 kts | 235° |
| 2026-04-28 09:35 | 54.98783 | 83.22177 | 6466 ft | 192 kts | 235° |
| 2026-04-28 09:35 | 54.97994 | 83.20349 | 6076 ft | 193 kts | 235° |
| 2026-04-28 09:35 | 54.97192 | 83.18503 | 5822 ft | 187 kts | 235° |
| 2026-04-28 09:36 | 54.96426 | 83.16747 | 5636 ft | 178 kts | 235° |
| 2026-04-28 09:36 | 54.95685 | 83.15052 | 5493 ft | 180 kts | 235° |
| 2026-04-28 09:36 | 54.94916 | 83.13296 | 5360 ft | 183 kts | 235° |
| 2026-04-28 09:36 | 54.94143 | 83.11534 | 5204 ft | 183 kts | 235° |
| 2026-04-28 09:37 | 54.93428 | 83.09717 | 5032 ft | 181 kts | 252° |
| 2026-04-28 09:37 | 54.93431 | 83.07638 | 4829 ft | 172 kts | 297° |
| 2026-04-28 09:37 | 54.94104 | 83.06023 | 4633 ft | 162 kts | 315° |
| 2026-04-28 09:37 | 54.94852 | 83.04615 | 4408 ft | 156 kts | 313° |
| 2026-04-28 09:38 | 54.95554 | 83.03190 | 4205 ft | 155 kts | 313° |
| 2026-04-28 09:38 | 54.96261 | 83.01758 | 4023 ft | 157 kts | 313° |
| 2026-04-28 09:38 | 54.96980 | 83.00312 | 3795 ft | 159 kts | 313° |
| 2026-04-28 09:38 | 54.97707 | 82.98862 | 3615 ft | 160 kts | 312° |
| 2026-04-28 09:39 | 54.98452 | 82.97382 | 3379 ft | 163 kts | 313° |
| 2026-04-28 09:39 | 54.99185 | 82.95921 | 3177 ft | 154 kts | 312° |
| 2026-04-28 09:39 | 54.99867 | 82.94566 | 2953 ft | 147 kts | 313° |
| 2026-04-28 09:39 | 55.00535 | 82.93241 | 2754 ft | 145 kts | 313° |
| 2026-04-28 09:40 | 55.01203 | 82.91917 | 2588 ft | 147 kts | 312° |
| 2026-04-28 09:40 | 55.01878 | 82.90579 | 2387 ft | 148 kts | 312° |
| 2026-04-28 09:40 | 55.02565 | 82.89229 | 2189 ft | 149 kts | 314° |
| 2026-04-28 09:40 | 55.03057 | 82.87690 | 1994 ft | 145 kts | 285° |
| 2026-04-28 09:41 | 55.03046 | 82.85920 | 2020 ft | 150 kts | 261° |
| 2026-04-28 09:41 | 55.02847 | 82.84113 | 2003 ft | 152 kts | 264° |
| 2026-04-28 09:41 | 55.02696 | 82.82306 | 1964 ft | 148 kts | 265° |
| 2026-04-28 09:41 | 55.02557 | 82.80528 | 1968 ft | 149 kts | 265° |
| 2026-04-28 09:42 | 55.02409 | 82.78733 | 1928 ft | 157 kts | 264° |
| 2026-04-28 09:42 | 55.02223 | 82.76849 | 1651 ft | 156 kts | 265° |
| 2026-04-28 09:42 | 55.02070 | 82.75003 | 1371 ft | 150 kts | 265° |
| 2026-04-28 09:42 | 55.01926 | 82.73243 | 1157 ft | 149 kts | 265° |
| 2026-04-28 09:43 | 55.01779 | 82.71413 | 863 ft | 155 kts | 266° |
| 2026-04-28 09:43 | 55.01641 | 82.69565 | 626 ft | 150 kts | 264° |
| 2026-04-28 09:43 | 55.01487 | 82.67825 | 422 ft | 142 kts | 261° |
| 2026-04-28 09:43 | 55.01348 | 82.66207 | 371 ft | 121 kts | 261° |
| 2026-04-28 09:44 | 55.01252 | 82.65153 | 372 ft | 26 kts | 261° |
| 2026-04-28 09:44 | 55.01214 | 82.65060 | 371 ft | 10 kts | 197° |
| 2026-04-28 09:44 | 55.01134 | 82.65074 | 372 ft | 13 kts | 171° |
| 2026-04-28 09:44 | 55.01038 | 82.65092 | 372 ft | 15 kts | 176° |
| 2026-04-28 09:45 | 55.00927 | 82.65125 | 372 ft | 17 kts | 169° |
| 2026-04-28 09:45 | 55.00885 | 82.65191 | 372 ft | 6 kts | 97° |
| 2026-04-28 09:45 | 55.00887 | 82.65313 | 372 ft | 14 kts | 86° |
| 2026-04-28 09:45 | 55.00904 | 82.65509 | 372 ft | 19 kts | 82° |
| 2026-04-28 09:46 | 55.00926 | 82.65757 | 372 ft | 21 kts | 80° |
| 2026-04-28 09:46 | 55.00949 | 82.66010 | 372 ft | 21 kts | 81° |
| 2026-04-28 09:46 | 55.00993 | 82.66245 | 372 ft | 20 kts | 71° |
| 2026-04-28 09:46 | 55.01018 | 82.66365 | 372 ft | 8 kts | 70° |
| 2026-04-28 09:47 | 55.01036 | 82.66452 | 372 ft | 8 kts | 69° |
| 2026-04-28 09:47 | 55.01017 | 82.66524 | 372 ft | 8 kts | 155° |
| 2026-04-28 09:47 | 55.00970 | 82.66543 | 372 ft | 0 kts | 168° |
| 2026-04-28 09:47 | 55.00969 | 82.66543 | 372 ft | 2 kts | 168° |
| 2026-04-28 09:48 | 55.00967 | 82.66544 | 372 ft | 0 kts | 169° |